Kalaheo, HI

6:25 PM HST on September 14, 2014 (GMT -1000)
Koloa Landing - Whaler's Cove | Change Station
CLOSE
Current Station
Personal Weather Station
Location: Koloa, HI
Elevation: 25 ft
Nearby Weather Stations
Active Advisory: High Surf Advisory Active Notice: Record Report

Elev 25 ft 21.88 °N, 159.47 °W | Updated 0 second ago

Overcast
Overcast
82.0 °F
Feels Like 88 °F
N
2.7
Wind Variable Wind from WSW
Gusts 4.9 mph

Today
High -- | Low -- °F
--% Chance of Precip.
Yesterday
High -- | Low -- °F
Precip. -- in
6:24 AM 6:42 PM
Waning Gibbous, 59% visible
Pressure 29.90 in
Visibility 10.0 miles
Clouds Overcast 3900 ft
Heat Index 88 °F
Dew Point 74 °F
Humidity 76%
Rainfall 0.00 in
Snow Depth Not available.
UV 0 out of 12
Pollen Not available.
Air Quality Not available.
Flu Activity Not available.
METAR PHLI 150353Z 03010KT 10SM OVC039 28/23 A2991 RMK AO2 SLP125 T02780228

More Conditions Fewer Conditions

Pressure 29.90 in
Visibility 10.0 miles
Clouds Overcast 3900 ft
Heat Index 88 °F
Dew Point 74 °F
Humidity 76%
Rainfall 0.00 in
Snow Depth Not available.
UV 0 out of 12
Pollen Not available.
Air Quality Not available.
Flu Activity Not available.
METAR PHLI 150353Z 03010KT 10SM OVC039 28/23 A2991 RMK AO2 SLP125 T02780228

More Conditions Fewer Conditions

10-Day Weather Forecast

Almanac

Astronomy

Sep. 14, 2014 Rise Set
Actual Time 6:24 AM HST 6:42 PM HST
Civil Twilight 6:02 AM HST 7:04 PM HST
Nautical Twilight 5:36 AM HST 7:30 PM HST
Astronomical Twilight 5:10 AM HST 7:56 PM HST
Moon 11:25 PM HST (9/14) 12:01 PM HST (9/14)
Length of Visible Light 13h 01m
Length of Day
12h 17m
Tomorrow will be 1m 15s shorter.
Waning Gibbous, 59% of the Moon is Illuminated
Sep 15
Waning Gibbous
Sep 15
Last Quarter
Sep 24
New
Oct 1
First Quarter
Oct 8
Full

Today's Extremes

State Highs State Lows

Community

WunderPhotos

Upload Photos

1,753,400 photos uploaded!

Nearby

Snow Depth

Station Depth Elevation
No new snow has been reported.

Earthquake Activity

City Distance Mag. Time & Date
No recent earthquake activity has been reported nearby.
Minimum magnitude displayed is 2.5.

Coastal Water Temperatures

Place Temperature
No Stations Reporting

Nearby Weather Stations